^^
Saratoga-Weather Station Historical Data
Daily Summary for January 11, 2020 Units:  Metric    English   Both
Daily Weekly Monthly Yearly Custom
  High: Low: Average:
Temperature: 15.4 °C 12.2 °C 13.5 °C
Dew Point: 11.9 °C 10.1 °C 11 °C
Humidity: 94% 76% 85%
Wind Speed: 29km/h 0km/h 6.7km/h
Wind Gust: 33.8km/h - -
Wind- - West
Pressure: 1016.3 hPa 1013.2 hPa -
Precipitation: 0.2 mm    
Historical Graphs
 
 
Tabular Data for January 11, 2020
Time Temperature Dew Point Pressure Wind Wind Speed Wind Gust Humidity Rainfall Rate (Hourly) solar
00:02 12.6 °C 11.7 °C 1013.5 hPa SW 7.9 km/h 11.3 km/h 94% 0.0 mm 0 W/m2
00:07 12.6 °C 11.7 °C 1013.5 hPa West 6.4 km/h 14.5 km/h 94% 0.0 mm 0 W/m2
00:12 12.6 °C 11.7 °C 1013.5 hPa West 14.3 km/h 19.3 km/h 94% 0.0 mm 0 W/m2
00:17 12.6 °C 11.7 °C 1013.2 hPa NW 6.4 km/h 8 km/h 94% 0.0 mm 0 W/m2
00:22 12.6 °C 11.7 °C 1013.5 hPa West 9.7 km/h 17.7 km/h 94% 0.0 mm 0 W/m2
00:27 12.6 °C 11.7 °C 1013.5 hPa North 4.7 km/h 16.1 km/h 94% 0.0 mm 0 W/m2
00:32 12.6 °C 11.7 °C 1013.5 hPa WNW 1.4 km/h 11.3 km/h 94% 0.0 mm 0 W/m2
00:37 12.6 °C 11.7 °C 1013.5 hPa NW 1.4 km/h 16.1 km/h 94% 0.0 mm 0 W/m2
00:42 12.6 °C 11.7 °C 1013.5 hPa West 1.4 km/h 22.5 km/h 94% 0.0 mm 0 W/m2
00:47 12.6 °C 11.7 °C 1013.5 hPa NW 4.7 km/h 17.7 km/h 94% 0.0 mm 0 W/m2
00:52 12.6 °C 11.7 °C 1013.5 hPa SSW 7.9 km/h 24.1 km/h 94% 0.0 mm 0 W/m2
00:57 12.6 °C 11.5 °C 1013.5 hPa WSW 3.2 km/h 14.5 km/h 93% 0.0 mm 0 W/m2
01:02 12.6 °C 11.5 °C 1013.5 hPa WSW 14.3 km/h 25.7 km/h 93% 0.0 mm 0 W/m2
01:08 12.6 °C 11.5 °C 1013.5 hPa WNW 1.4 km/h 11.3 km/h 93% 0.0 mm 0 W/m2
01:13 12.4 °C 11.3 °C 1013.5 hPa West 6.4 km/h 19.3 km/h 93% 0.0 mm 0 W/m2
01:18 12.4 °C 11.5 °C 1013.5 hPa SW 13 km/h 14.5 km/h 94% 0.0 mm 0 W/m2
01:28 12.4 °C 11.5 °C 1013.5 hPa WNW 3.2 km/h 8 km/h 94% 0.0 mm 0 W/m2
01:33 12.4 °C 11.5 °C 1013.5 hPa North 3.2 km/h 20.9 km/h 94% 0.0 mm 0 W/m2
01:38 12.4 °C 11.5 °C 1013.5 hPa NNW 17.7 km/h 33.8 km/h 94% 0.0 mm 0 W/m2
01:43 12.4 °C 11.3 °C 1013.5 hPa WNW 7.9 km/h 12.9 km/h 93% 0.0 mm 0 W/m2
01:48 12.4 °C 11.3 °C 1013.5 hPa NW 16.3 km/h 27.4 km/h 93% 0.0 mm 0 W/m2
01:53 12.3 °C 11.4 °C 1013.9 hPa NNW 13 km/h 16.1 km/h 94% 0.0 mm 0 W/m2
01:58 12.3 °C 11.4 °C 1013.9 hPa WSW 9.7 km/h 22.5 km/h 94% 0.0 mm 0 W/m2
02:03 12.3 °C 11.4 °C 1013.9 hPa WSW 7.9 km/h 19.3 km/h 94% 0.0 mm 0 W/m2
02:08 12.3 °C 11.4 °C 1013.9 hPa WNW 6.4 km/h 9.7 km/h 94% 0.0 mm 0 W/m2
02:13 12.3 °C 11.4 °C 1013.9 hPa NW 6.4 km/h 8 km/h 94% 0.0 mm 0 W/m2
02:18 12.3 °C 11.4 °C 1013.9 hPa West 4.7 km/h 9.7 km/h 94% 0.0 mm 0 W/m2
02:23 12.3 °C 11.2 °C 1013.9 hPa West 9.7 km/h 14.5 km/h 93% 0.0 mm 0 W/m2
02:28 12.3 °C 11.2 °C 1013.9 hPa WNW 16.3 km/h 19.3 km/h 93% 0.0 mm 0 W/m2
02:34 12.4 °C 11.3 °C 1013.9 hPa WNW 6.4 km/h 14.5 km/h 93% 0.0 mm 0 W/m2
02:39 12.4 °C 11.3 °C 1013.9 hPa NW 14.3 km/h 14.5 km/h 93% 0.0 mm 0 W/m2
02:44 12.4 °C 11.3 °C 1013.9 hPa SW 13 km/h 22.5 km/h 93% 0.0 mm 0 W/m2
02:49 12.4 °C 11.3 °C 1013.9 hPa West 11.1 km/h 16.1 km/h 93% 0.0 mm 0 W/m2
02:54 12.4 °C 11.3 °C 1013.9 hPa West 3.2 km/h 12.9 km/h 93% 0.0 mm 0 W/m2
02:59 12.4 °C 11.3 °C 1013.9 hPa NW 3.2 km/h 16.1 km/h 93% 0.0 mm 0 W/m2
03:04 12.4 °C 11.3 °C 1013.9 hPa SW 9.7 km/h 19.3 km/h 93% 0.0 mm 0 W/m2
03:09 12.4 °C 11.3 °C 1013.9 hPa West 9.7 km/h 14.5 km/h 93% 0.0 mm 0 W/m2
03:14 12.4 °C 11.3 °C 1013.9 hPa WNW 4.7 km/h 9.7 km/h 93% 0.0 mm 0 W/m2
03:19 12.4 °C 11.1 °C 1014.2 hPa NNW 4.7 km/h 12.9 km/h 92% 0.0 mm 0 W/m2
03:24 12.4 °C 11.3 °C 1013.9 hPa NW 16.3 km/h 16.1 km/h 93% 0.0 mm 0 W/m2
03:29 12.4 °C 11.1 °C 1014.2 hPa WNW 11.1 km/h 14.5 km/h 92% 0.0 mm 0 W/m2
03:34 12.4 °C 11.1 °C 1013.9 hPa WNW 7.9 km/h 12.9 km/h 92% 0.0 mm 0 W/m2
03:39 12.4 °C 11.1 °C 1013.9 hPa NW 7.9 km/h 25.7 km/h 92% 0.0 mm 0 W/m2
03:45 12.4 °C 11.3 °C 1014.2 hPa NNW 3.2 km/h 8 km/h 93% 0.0 mm 0 W/m2
03:50 12.4 °C 11.1 °C 1014.2 hPa WNW 3.2 km/h 14.5 km/h 92% 0.0 mm 0 W/m2
03:55 12.3 °C 11.2 °C 1013.9 hPa NW 4.7 km/h 8 km/h 93% 0.0 mm 0 W/m2
04:00 12.3 °C 11.2 °C 1014.2 hPa WNW 13 km/h 25.7 km/h 93% 0.0 mm 0 W/m2
04:05 12.3 °C 11.2 °C 1014.2 hPa WNW 3.2 km/h 12.9 km/h 93% 0.0 mm 0 W/m2
04:10 12.3 °C 11.2 °C 1014.2 hPa NW 7.9 km/h 22.5 km/h 93% 0.0 mm 0 W/m2
04:15 12.3 °C 11.2 °C 1014.2 hPa WSW 7.9 km/h 17.7 km/h 93% 0.0 mm 0 W/m2
04:20 12.3 °C 11 °C 1014.2 hPa ENE 3.2 km/h 9.7 km/h 92% 0.0 mm 0 W/m2
04:25 12.3 °C 11 °C 1014.2 hPa NW 6.4 km/h 17.7 km/h 92% 0.0 mm 0 W/m2
04:30 12.4 °C 11.1 °C 1014.2 hPa West 16.3 km/h 16.1 km/h 92% 0.0 mm 0 W/m2
04:35 12.4 °C 11.1 °C 1014.2 hPa NW 7.9 km/h 20.9 km/h 92% 0.0 mm 0 W/m2
04:40 12.5 °C 11.2 °C 1014.2 hPa WNW 1.4 km/h 11.3 km/h 92% 0.0 mm 0 W/m2
04:45 12.5 °C 11.2 °C 1014.6 hPa NNW 4.7 km/h 12.9 km/h 92% 0.0 mm 0 W/m2
04:50 12.4 °C 11.1 °C 1014.6 hPa WNW 13 km/h 12.9 km/h 92% 0.0 mm 0 W/m2
04:55 12.5 °C 11.1 °C 1014.6 hPa WNW 7.9 km/h 17.7 km/h 91% 0.0 mm 0 W/m2
05:00 12.4 °C 11 °C 1014.6 hPa WSW 14.3 km/h 16.1 km/h 91% 0.0 mm 0 W/m2
05:05 12.4 °C 11.1 °C 1014.6 hPa WNW 6.4 km/h 19.3 km/h 92% 0.2 mm 0 W/m2
05:10 12.3 °C 11 °C 1014.6 hPa WNW 4.7 km/h 12.9 km/h 92% 0.2 mm 0 W/m2
05:15 12.3 °C 11 °C 1014.6 hPa WSW 14.3 km/h 14.5 km/h 92% 0.2 mm 0 W/m2
05:20 12.2 °C 10.9 °C 1014.6 hPa West 1.4 km/h 11.3 km/h 92% 0.2 mm 0 W/m2
05:25 12.2 °C 10.9 °C 1014.6 hPa South 9.7 km/h 12.9 km/h 92% 0.2 mm 0 W/m2
05:31 12.2 °C 10.9 °C 1014.6 hPa West 6.4 km/h 12.9 km/h 92% 0.2 mm 0 W/m2
05:36 12.2 °C 10.9 °C 1014.6 hPa West 11.1 km/h 12.9 km/h 92% 0.2 mm 0 W/m2
05:41 12.2 °C 10.9 °C 1014.6 hPa WNW 11.1 km/h 12.9 km/h 92% 0.2 mm 0 W/m2
05:46 12.2 °C 10.9 °C 1014.9 hPa WNW 17.7 km/h 17.7 km/h 92% 0.2 mm 0 W/m2
05:51 12.2 °C 10.9 °C 1014.6 hPa WNW 7.9 km/h 14.5 km/h 92% 0.2 mm 0 W/m2
05:56 12.2 °C 10.9 °C 1014.6 hPa WSW 13 km/h 17.7 km/h 92% 0.2 mm 0 W/m2
06:01 12.2 °C 10.8 °C 1014.6 hPa NNW 4.7 km/h 16.1 km/h 91% 0.2 mm 0 W/m2
06:06 12.2 °C 10.8 °C 1014.9 hPa SW 13 km/h 12.9 km/h 91% 0.0 mm 0 W/m2
06:11 12.2 °C 10.8 °C 1014.9 hPa WSW 3.2 km/h 12.9 km/h 91% 0.0 mm 0 W/m2
06:16 12.2 °C 10.8 °C 1014.9 hPa NNW 6.4 km/h 9.7 km/h 91% 0.0 mm 0 W/m2
06:21 12.2 °C 10.8 °C 1014.9 hPa WNW 11.1 km/h 29 km/h 91% 0.0 mm 0 W/m2
06:26 12.3 °C 10.9 °C 1014.9 hPa NNW 3.2 km/h 24.1 km/h 91% 0.0 mm 0 W/m2
06:31 12.3 °C 10.9 °C 1014.9 hPa NNW 4.7 km/h 29 km/h 91% 0.0 mm 0 W/m2
06:36 12.3 °C 10.7 °C 1014.9 hPa NW 6.4 km/h 16.1 km/h 90% 0.0 mm 0 W/m2
06:41 12.3 °C 10.7 °C 1014.9 hPa WNW 13 km/h 24.1 km/h 90% 0.0 mm 0 W/m2
06:46 12.3 °C 10.7 °C 1014.9 hPa WNW 4.7 km/h 11.3 km/h 90% 0.0 mm 0 W/m2
06:51 12.3 °C 10.7 °C 1014.9 hPa South 4.7 km/h 11.3 km/h 90% 0.0 mm 0 W/m2
06:56 12.4 °C 10.8 °C 1014.9 hPa WNW 3.2 km/h 14.5 km/h 90% 0.0 mm 0 W/m2
07:01 12.4 °C 10.8 °C 1014.9 hPa WSW 11.1 km/h 12.9 km/h 90% 0.0 mm 0 W/m2
07:06 12.4 °C 10.8 °C 1014.9 hPa Calm   14.5 km/h 90% 0.0 mm 5 W/m2
07:11 12.4 °C 10.8 °C 1015.2 hPa WNW 4.7 km/h 12.9 km/h 90% 0.0 mm 7 W/m2
07:16 12.4 °C 10.8 °C 1014.9 hPa NW 4.7 km/h 6.4 km/h 90% 0.0 mm 7 W/m2
07:21 12.4 °C 10.8 °C 1014.9 hPa WNW 3.2 km/h 8 km/h 90% 0.0 mm 12 W/m2
07:26 12.4 °C 10.8 °C 1015.2 hPa NW 1.4 km/h 4.8 km/h 90% 0.0 mm 16 W/m2
07:31 12.4 °C 10.8 °C 1015.2 hPa West 11.1 km/h 12.9 km/h 90% 0.0 mm 19 W/m2
07:36 12.4 °C 10.8 °C 1015.2 hPa NNW 1.4 km/h 9.7 km/h 90% 0.0 mm 25 W/m2
07:41 12.4 °C 10.8 °C 1015.2 hPa NNE 3.2 km/h 16.1 km/h 90% 0.0 mm 26 W/m2
07:46 12.4 °C 10.8 °C 1014.9 hPa NW 4.7 km/h 6.4 km/h 90% 0.0 mm 37 W/m2
07:51 12.5 °C 10.9 °C 1015.2 hPa NNW 4.7 km/h 12.9 km/h 90% 0.0 mm 56 W/m2
07:56 12.5 °C 10.9 °C 1015.2 hPa NW 3.2 km/h 6.4 km/h 90% 0.0 mm 77 W/m2
08:01 12.6 °C 11 °C 1015.2 hPa NNW 1.4 km/h 11.3 km/h 90% 0.0 mm 65 W/m2
08:06 12.6 °C 11 °C 1015.2 hPa East 3.2 km/h 11.3 km/h 90% 0.0 mm 98 W/m2
08:11 12.6 °C 11 °C 1015.2 hPa West 11.1 km/h 11.3 km/h 90% 0.0 mm 62 W/m2
08:16 12.7 °C 11.1 °C 1015.2 hPa WNW 11.1 km/h 11.3 km/h 90% 0.0 mm 77 W/m2
08:22 12.7 °C 10.9 °C 1015.2 hPa NNW 3.2 km/h 16.1 km/h 89% 0.0 mm 74 W/m2
08:27 12.7 °C 11.1 °C 1015.2 hPa North 7.9 km/h 20.9 km/h 90% 0.0 mm 91 W/m2
08:32 12.7 °C 11.1 °C 1015.2 hPa NW 13 km/h 12.9 km/h 90% 0.0 mm 81 W/m2
08:37 12.7 °C 10.9 °C 1015.2 hPa NNW 3.2 km/h 6.4 km/h 89% 0.0 mm 67 W/m2
08:42 12.7 °C 10.9 °C 1015.2 hPa NW 3.2 km/h 8 km/h 89% 0.0 mm 134 W/m2
08:47 12.8 °C 11 °C 1015.2 hPa NW 4.7 km/h 6.4 km/h 89% 0.0 mm 139 W/m2
08:52 12.8 °C 11 °C 1015.2 hPa WNW 7.9 km/h 14.5 km/h 89% 0.0 mm 167 W/m2
08:57 12.9 °C 11.1 °C 1015.6 hPa NW 4.7 km/h 11.3 km/h 89% 0.0 mm 204 W/m2
09:02 13.1 °C 11.3 °C 1015.6 hPa WNW 11.1 km/h 19.3 km/h 89% 0.0 mm 113 W/m2
09:07 13.1 °C 11.3 °C 1015.6 hPa South 4.7 km/h 12.9 km/h 89% 0.0 mm 114 W/m2
09:12 13.1 °C 11.2 °C 1015.6 hPa SW 6.4 km/h 20.9 km/h 88% 0.0 mm 171 W/m2
09:17 13.2 °C 11.3 °C 1015.9 hPa West 17.7 km/h 20.9 km/h 88% 0.0 mm 137 W/m2
09:22 13.3 °C 11.2 °C 1015.6 hPa NW 9.7 km/h 14.5 km/h 87% 0.0 mm 186 W/m2
09:27 13.4 °C 11.3 °C 1015.6 hPa WNW 16.3 km/h 22.5 km/h 87% 0.0 mm 221 W/m2
09:32 13.6 °C 11.3 °C 1015.6 hPa NNW 6.4 km/h 14.5 km/h 86% 0.0 mm 304 W/m2
09:37 13.8 °C 11.5 °C 1015.6 hPa West 11.1 km/h 20.9 km/h 86% 0.0 mm 214 W/m2
09:42 13.8 °C 11.3 °C 1015.6 hPa NNW 7.9 km/h 12.9 km/h 85% 0.0 mm 230 W/m2
09:47 13.8 °C 11.3 °C 1015.9 hPa WNW 11.1 km/h 12.9 km/h 85% 0.0 mm 230 W/m2
09:52 13.8 °C 11.1 °C 1015.9 hPa NW 7.9 km/h 17.7 km/h 84% 0.0 mm 104 W/m2
09:57 13.6 °C 10.9 °C 1015.9 hPa West 9.7 km/h 19.3 km/h 84% 0.0 mm 69 W/m2
10:02 13.5 °C 11 °C 1015.9 hPa WNW 6.4 km/h 16.1 km/h 85% 0.0 mm 51 W/m2
10:07 13.4 °C 10.9 °C 1015.9 hPa NNW 9.7 km/h 17.7 km/h 85% 0.0 mm 83 W/m2
10:12 13.3 °C 11 °C 1016.3 hPa WNW 19.5 km/h 19.3 km/h 86% 0.0 mm 116 W/m2
10:17 13.3 °C 11 °C 1015.9 hPa NW 6.4 km/h 9.7 km/h 86% 0.0 mm 139 W/m2
10:22 13.2 °C 11.3 °C 1016.3 hPa WSW 4.7 km/h 24.1 km/h 88% 0.0 mm 144 W/m2
10:27 12.9 °C 11.1 °C 1015.9 hPa NNW 6.4 km/h 14.5 km/h 89% 0.0 mm 158 W/m2
10:32 12.8 °C 11.2 °C 1016.3 hPa West 4.7 km/h 16.1 km/h 90% 0.0 mm 146 W/m2
10:37 12.7 °C 11.1 °C 1016.3 hPa WNW 9.7 km/h 11.3 km/h 90% 0.0 mm 134 W/m2
10:42 12.7 °C 11.1 °C 1016.3 hPa NW 7.9 km/h 11.3 km/h 90% 0.0 mm 162 W/m2
10:47 12.8 °C 11.2 °C 1016.3 hPa West 6.4 km/h 14.5 km/h 90% 0.0 mm 163 W/m2
10:52 12.8 °C 11.2 °C 1016.3 hPa NNW 7.9 km/h 16.1 km/h 90% 0.0 mm 204 W/m2
10:57 13 °C 11.2 °C 1016.3 hPa WNW 11.1 km/h 16.1 km/h 89% 0.0 mm 200 W/m2
11:02 13.1 °C 11.3 °C 1016.3 hPa NW 14.3 km/h 14.5 km/h 89% 0.0 mm 132 W/m2
11:07 13.1 °C 11.3 °C 1016.3 hPa West 9.7 km/h 14.5 km/h 89% 0.0 mm 113 W/m2
11:12 13.1 °C 11.3 °C 1016.3 hPa NW 3.2 km/h 9.7 km/h 89% 0.0 mm 304 W/m2
11:17 13.2 °C 11.3 °C 1016.3 hPa NW 6.4 km/h 14.5 km/h 88% 0.0 mm 404 W/m2
11:22 13.5 °C 11.4 °C 1016.3 hPa NW 7.9 km/h 17.7 km/h 87% 0.0 mm 227 W/m2
11:27 13.6 °C 11.3 °C 1016.3 hPa WNW 7.9 km/h 16.1 km/h 86% 0.0 mm 162 W/m2
11:32 13.7 °C 11.2 °C 1016.3 hPa SW 7.9 km/h 12.9 km/h 85% 0.0 mm 178 W/m2
11:38 13.7 °C 11.2 °C 1016.3 hPa South 7.9 km/h 22.5 km/h 85% 0.0 mm 172 W/m2
11:43 13.8 °C 11.1 °C 1016.3 hPa WSW 11.1 km/h 16.1 km/h 84% 0.0 mm 230 W/m2
11:48 13.8 °C 11.1 °C 1016.3 hPa NNW 6.4 km/h 17.7 km/h 84% 0.0 mm 220 W/m2
11:53 13.9 °C 11.1 °C 1016.3 hPa West 13 km/h 19.3 km/h 83% 0.0 mm 211 W/m2
11:58 14.2 °C 11.4 °C 1016.3 hPa North 6.4 km/h 19.3 km/h 83% 0.0 mm 211 W/m2
12:03 14.6 °C 11.7 °C 1016.3 hPa NNW 4.7 km/h 11.3 km/h 83% 0.0 mm 408 W/m2
12:08 14.8 °C 11.8 °C 1016.3 hPa West 3.2 km/h 12.9 km/h 82% 0.0 mm 468 W/m2
12:13 14.8 °C 11.4 °C 1015.9 hPa NW 4.7 km/h 12.9 km/h 80% 0.0 mm 246 W/m2
12:18 14.9 °C 11.5 °C 1015.9 hPa NNW 7.9 km/h 24.1 km/h 80% 0.0 mm 234 W/m2
12:23 15.1 °C 11.9 °C 1015.9 hPa North 13 km/h 12.9 km/h 81% 0.0 mm 777 W/m2
12:28 15.1 °C 11.5 °C 1015.9 hPa WSW 13 km/h 12.9 km/h 79% 0.0 mm 272 W/m2
12:33 15.2 °C 11.8 °C 1015.9 hPa West 3.2 km/h 16.1 km/h 80% 0.0 mm 322 W/m2
12:38 15.2 °C 11.6 °C 1016.3 hPa WNW 3.2 km/h 9.7 km/h 79% 0.0 mm 244 W/m2
12:43 15.1 °C 11.3 °C 1016.3 hPa West 11.1 km/h 19.3 km/h 78% 0.0 mm 338 W/m2
12:48 15.1 °C 11.3 °C 1016.3 hPa West 3.2 km/h 19.3 km/h 78% 0.0 mm 221 W/m2
12:53 15.1 °C 11.5 °C 1015.9 hPa WNW 14.3 km/h 14.5 km/h 79% 0.0 mm 332 W/m2
12:58 15.2 °C 11.4 °C 1015.9 hPa WNW 6.4 km/h 17.7 km/h 78% 0.0 mm 236 W/m2
13:03 15.3 °C 11.5 °C 1015.9 hPa WSW 6.4 km/h 17.7 km/h 78% 0.0 mm 257 W/m2
13:08 15.4 °C 11.6 °C 1015.9 hPa WSW 4.7 km/h 6.4 km/h 78% 0.0 mm 283 W/m2
13:13 15.4 °C 11.6 °C 1015.9 hPa West 9.7 km/h 16.1 km/h 78% 0.0 mm 246 W/m2
13:18 15.3 °C 11.5 °C 1015.9 hPa West 6.4 km/h 22.5 km/h 78% 0.0 mm 294 W/m2
13:23 15.2 °C 11.4 °C 1015.9 hPa NW 6.4 km/h 11.3 km/h 78% 0.0 mm 269 W/m2
13:28 15.2 °C 11.4 °C 1015.9 hPa NW 3.2 km/h 14.5 km/h 78% 0.0 mm 120 W/m2
13:33 15.2 °C 11.6 °C 1015.9 hPa West 4.7 km/h 29 km/h 79% 0.0 mm 113 W/m2
13:38 14.9 °C 11.3 °C 1015.9 hPa West 13 km/h 17.7 km/h 79% 0.0 mm 146 W/m2
13:43 14.8 °C 11.2 °C 1015.9 hPa WSW 7.9 km/h 20.9 km/h 79% 0.0 mm 267 W/m2
13:48 14.9 °C 11.5 °C 1015.6 hPa West 11.1 km/h 12.9 km/h 80% 0.0 mm 325 W/m2
13:53 15.1 °C 11.5 °C 1015.6 hPa West 6.4 km/h 20.9 km/h 79% 0.0 mm 239 W/m2
13:58 15.1 °C 11.5 °C 1015.6 hPa West 3.2 km/h 11.3 km/h 79% 0.0 mm 258 W/m2
14:03 15.1 °C 11.5 °C 1015.6 hPa NW 13 km/h 20.9 km/h 79% 0.0 mm 105 W/m2
14:08 15 °C 11.2 °C 1015.6 hPa WSW 6.4 km/h 29 km/h 78% 0.0 mm 118 W/m2
14:13 14.9 °C 11.3 °C 1015.6 hPa West 11.1 km/h 14.5 km/h 79% 0.0 mm 121 W/m2
14:18 14.9 °C 11.3 °C 1015.6 hPa West 9.7 km/h 29 km/h 79% 0.0 mm 174 W/m2
14:24 14.9 °C 11.3 °C 1015.6 hPa West 14.3 km/h 17.7 km/h 79% 0.0 mm 113 W/m2
14:29 14.8 °C 11 °C 1015.6 hPa NNW 29 km/h 29 km/h 78% 0.0 mm 141 W/m2
14:34 14.9 °C 11.3 °C 1015.6 hPa WSW 6.4 km/h 12.9 km/h 79% 0.0 mm 120 W/m2
14:39 14.9 °C 11.3 °C 1015.6 hPa WNW 3.2 km/h 16.1 km/h 79% 0.0 mm 127 W/m2
14:44 14.9 °C 11.3 °C 1015.6 hPa WSW 13 km/h 24.1 km/h 79% 0.0 mm 149 W/m2
14:49 14.9 °C 11.1 °C 1015.6 hPa WNW 6.4 km/h 11.3 km/h 78% 0.0 mm 128 W/m2
14:54 14.9 °C 11.3 °C 1015.6 hPa WNW 1.4 km/h 24.1 km/h 79% 0.0 mm 83 W/m2
14:59 14.9 °C 11.3 °C 1015.6 hPa SSW 6.4 km/h 12.9 km/h 79% 0.0 mm 65 W/m2
15:04 14.9 °C 11.3 °C 1015.6 hPa ENE 3.2 km/h 20.9 km/h 79% 0.0 mm 93 W/m2
15:09 14.9 °C 11.3 °C 1015.6 hPa NNW 1.4 km/h 6.4 km/h 79% 0.0 mm 114 W/m2
15:14 14.9 °C 11.3 °C 1015.6 hPa WNW 13 km/h 12.9 km/h 79% 0.0 mm 113 W/m2
15:19 14.9 °C 11.1 °C 1015.6 hPa NNW 3.2 km/h 8 km/h 78% 0.0 mm 132 W/m2
15:24 14.9 °C 11.1 °C 1015.2 hPa NW 6.4 km/h 8 km/h 78% 0.0 mm 151 W/m2
15:29 14.9 °C 11.1 °C 1015.2 hPa ENE 6.4 km/h 14.5 km/h 78% 0.0 mm 128 W/m2
15:34 15 °C 11 °C 1015.2 hPa WNW 4.7 km/h 14.5 km/h 77% 0.0 mm 84 W/m2
15:39 14.9 °C 10.9 °C 1015.2 hPa NW 14.3 km/h 14.5 km/h 77% 0.0 mm 91 W/m2
15:44 14.9 °C 11.1 °C 1015.2 hPa West 6.4 km/h 17.7 km/h 78% 0.0 mm 83 W/m2
15:49 14.9 °C 11.1 °C 1015.2 hPa NNW 3.2 km/h 11.3 km/h 78% 0.0 mm 69 W/m2
15:54 14.8 °C 11 °C 1015.2 hPa NNW 1.4 km/h 17.7 km/h 78% 0.0 mm 77 W/m2
15:59 14.8 °C 11 °C 1015.2 hPa NW 4.7 km/h 12.9 km/h 78% 0.0 mm 70 W/m2
16:04 14.8 °C 11 °C 1015.2 hPa WNW 13 km/h 12.9 km/h 78% 0.0 mm 67 W/m2
16:10 14.8 °C 11 °C 1015.2 hPa West 6.4 km/h 9.7 km/h 78% 0.0 mm 62 W/m2
16:15 14.8 °C 11 °C 1015.2 hPa NE 1.4 km/h 4.8 km/h 78% 0.0 mm 76 W/m2
16:20 14.8 °C 11 °C 1015.2 hPa WNW 6.4 km/h 16.1 km/h 78% 0.0 mm 98 W/m2
16:25 14.9 °C 10.9 °C 1015.2 hPa WNW 4.7 km/h 11.3 km/h 77% 0.0 mm 90 W/m2
16:30 14.9 °C 11.1 °C 1015.2 hPa NW 6.4 km/h 6.4 km/h 78% 0.0 mm 72 W/m2
16:35 15 °C 11 °C 1015.2 hPa WSW 4.7 km/h 6.4 km/h 77% 0.0 mm 63 W/m2
16:40 15 °C 11 °C 1015.2 hPa West 11.1 km/h 11.3 km/h 77% 0.0 mm 53 W/m2
16:45 15 °C 11 °C 1015.2 hPa WSW 3.2 km/h 9.7 km/h 77% 0.0 mm 46 W/m2
16:50 15 °C 11 °C 1015.2 hPa NNW 7.9 km/h 16.1 km/h 77% 0.0 mm 42 W/m2
16:55 15 °C 11 °C 1015.2 hPa NNW 9.7 km/h 12.9 km/h 77% 0.0 mm 54 W/m2
17:00 15 °C 11 °C 1015.2 hPa South 11.1 km/h 12.9 km/h 77% 0.0 mm 58 W/m2
17:05 15 °C 11 °C 1015.2 hPa SSE 4.7 km/h 6.4 km/h 77% 0.0 mm 32 W/m2
17:10 14.9 °C 10.7 °C 1015.2 hPa South 3.2 km/h 12.9 km/h 76% 0.0 mm 53 W/m2
17:15 14.9 °C 10.9 °C 1015.2 hPa West 3.2 km/h 3.2 km/h 77% 0.0 mm 35 W/m2
17:20 14.9 °C 10.9 °C 1015.2 hPa South 1.4 km/h 9.7 km/h 77% 0.0 mm 46 W/m2
17:25 14.9 °C 10.9 °C 1015.2 hPa North 1.4 km/h 4.8 km/h 77% 0.0 mm 56 W/m2
17:30 14.9 °C 10.9 °C 1015.2 hPa NNW 3.2 km/h 9.7 km/h 77% 0.0 mm 47 W/m2
17:35 14.9 °C 10.9 °C 1014.9 hPa NW 4.7 km/h 19.3 km/h 77% 0.0 mm 47 W/m2
17:40 14.9 °C 10.9 °C 1014.9 hPa North 3.2 km/h 9.7 km/h 77% 0.0 mm 40 W/m2
17:45 14.8 °C 11 °C 1014.9 hPa WNW 4.7 km/h 19.3 km/h 78% 0.0 mm 30 W/m2
17:50 14.8 °C 11 °C 1014.9 hPa SSW 1.4 km/h 9.7 km/h 78% 0.0 mm 30 W/m2
17:55 14.8 °C 11 °C 1015.2 hPa Calm   6.4 km/h 78% 0.0 mm 19 W/m2
18:00 14.8 °C 11 °C 1014.9 hPa NNE 3.2 km/h 19.3 km/h 78% 0.0 mm 18 W/m2
18:05 14.7 °C 10.7 °C 1015.2 hPa SW 7.9 km/h 16.1 km/h 77% 0.0 mm 14 W/m2
18:10 14.7 °C 10.7 °C 1015.2 hPa North 1.4 km/h 6.4 km/h 77% 0.0 mm 12 W/m2
18:15 14.7 °C 10.9 °C 1015.2 hPa WNW 1.4 km/h 20.9 km/h 78% 0.0 mm 11 W/m2
18:20 14.7 °C 10.9 °C 1015.2 hPa NNE 4.7 km/h 4.8 km/h 78% 0.0 mm 9 W/m2
18:25 14.6 °C 10.8 °C 1015.2 hPa East 3.2 km/h 8 km/h 78% 0.0 mm 5 W/m2
18:31 14.6 °C 10.8 °C 1015.2 hPa NE 3.2 km/h 4.8 km/h 78% 0.0 mm 0 W/m2
18:36 14.5 °C 10.7 °C 1015.2 hPa SW 24.1 km/h 24.1 km/h 78% 0.0 mm 0 W/m2
18:41 14.5 °C 10.7 °C 1015.2 hPa NNW 6.4 km/h 6.4 km/h 78% 0.0 mm 0 W/m2
18:46 14.4 °C 10.6 °C 1015.2 hPa SW 17.7 km/h 17.7 km/h 78% 0.0 mm 0 W/m2
18:51 14.4 °C 10.6 °C 1015.2 hPa SW 4.7 km/h 20.9 km/h 78% 0.0 mm 0 W/m2
18:56 14.4 °C 10.6 °C 1015.2 hPa North 1.4 km/h 8 km/h 78% 0.0 mm 0 W/m2
19:01 14.4 °C 10.6 °C 1015.2 hPa SE 1.4 km/h 16.1 km/h 78% 0.0 mm 0 W/m2
19:06 14.3 °C 10.5 °C 1015.2 hPa NW 3.2 km/h 9.7 km/h 78% 0.0 mm 0 W/m2
19:11 14.3 °C 10.5 °C 1015.2 hPa WNW 3.2 km/h 11.3 km/h 78% 0.0 mm 0 W/m2
19:16 14.3 °C 10.5 °C 1015.2 hPa West 11.1 km/h 11.3 km/h 78% 0.0 mm 0 W/m2
19:21 14.3 °C 10.5 °C 1015.2 hPa NNE 3.2 km/h 4.8 km/h 78% 0.0 mm 0 W/m2
19:26 14.2 °C 10.4 °C 1015.2 hPa ENE 1.4 km/h 6.4 km/h 78% 0.0 mm 0 W/m2
19:31 14.2 °C 10.6 °C 1015.2 hPa NNW 3.2 km/h 12.9 km/h 79% 0.0 mm 0 W/m2
19:36 14.2 °C 10.6 °C 1015.2 hPa WSW 4.7 km/h 9.7 km/h 79% 0.0 mm 0 W/m2
19:41 14.1 °C 10.5 °C 1015.2 hPa Calm   16.1 km/h 79% 0.0 mm 0 W/m2
19:47 14.1 °C 10.5 °C 1015.2 hPa NNW 3.2 km/h 6.4 km/h 79% 0.0 mm 0 W/m2
19:52 14.1 °C 10.7 °C 1015.2 hPa NNW 3.2 km/h 12.9 km/h 80% 0.0 mm 0 W/m2
19:57 14.1 °C 10.7 °C 1015.2 hPa North 3.2 km/h 6.4 km/h 80% 0.0 mm 0 W/m2
20:02 14.1 °C 10.7 °C 1014.9 hPa WNW 4.7 km/h 12.9 km/h 80% 0.0 mm 0 W/m2
20:07 14.1 °C 10.7 °C 1015.2 hPa ENE 1.4 km/h 9.7 km/h 80% 0.0 mm 0 W/m2
20:12 14.1 °C 10.7 °C 1014.9 hPa SW 9.7 km/h 9.7 km/h 80% 0.0 mm 0 W/m2
20:17 14 °C 10.6 °C 1014.9 hPa NW 4.7 km/h 6.4 km/h 80% 0.0 mm 0 W/m2
20:22 14 °C 10.6 °C 1014.9 hPa WNW 3.2 km/h 6.4 km/h 80% 0.0 mm 0 W/m2
20:27 13.9 °C 10.5 °C 1014.9 hPa North 4.7 km/h 6.4 km/h 80% 0.0 mm 0 W/m2
20:32 13.9 °C 10.5 °C 1014.9 hPa NNE 14.5 km/h 14.5 km/h 80% 0.0 mm 0 W/m2
20:37 13.9 °C 10.5 °C 1014.9 hPa North 3.2 km/h 6.4 km/h 80% 0.0 mm 0 W/m2
20:42 13.9 °C 10.5 °C 1014.9 hPa NNW 4.7 km/h 6.4 km/h 80% 0.0 mm 0 W/m2
20:47 13.9 °C 10.5 °C 1014.6 hPa WNW 3.2 km/h 12.9 km/h 80% 0.0 mm 0 W/m2
20:52 13.9 °C 10.5 °C 1014.6 hPa SSW 3.2 km/h 6.4 km/h 80% 0.0 mm 0 W/m2
20:57 13.9 °C 10.5 °C 1014.6 hPa Calm   11.3 km/h 80% 0.0 mm 0 W/m2
21:02 13.8 °C 10.4 °C 1014.6 hPa Calm   3.2 km/h 80% 0.0 mm 0 W/m2
21:07 13.8 °C 10.4 °C 1014.6 hPa WNW 11.1 km/h 11.3 km/h 80% 0.0 mm 0 W/m2
21:12 13.8 °C 10.4 °C 1014.6 hPa WSW 3.2 km/h 4.8 km/h 80% 0.0 mm 0 W/m2
21:17 13.8 °C 10.4 °C 1014.6 hPa NW 4.7 km/h 8 km/h 80% 0.0 mm 0 W/m2
21:22 13.8 °C 10.2 °C 1014.6 hPa West 4.7 km/h 14.5 km/h 79% 0.0 mm 0 W/m2
21:27 13.8 °C 10.2 °C 1014.6 hPa East 4.7 km/h 4.8 km/h 79% 0.0 mm 0 W/m2
21:32 13.7 °C 10.1 °C 1014.2 hPa East 3.2 km/h 14.5 km/h 79% 0.0 mm 0 W/m2
21:37 13.6 °C 10.2 °C 1014.2 hPa NNE 4.7 km/h 8 km/h 80% 0.0 mm 0 W/m2
21:42 13.6 °C 10.2 °C 1014.2 hPa SSE 1.4 km/h 3.2 km/h 80% 0.0 mm 0 W/m2
21:47 13.6 °C 10.2 °C 1014.2 hPa ENE 3.2 km/h 6.4 km/h 80% 0.0 mm 0 W/m2
21:52 13.5 °C 10.1 °C 1014.2 hPa WNW 6.4 km/h 8 km/h 80% 0.0 mm 0 W/m2
21:58 13.4 °C 10.2 °C 1014.2 hPa WNW 6.4 km/h 6.4 km/h 81% 0.0 mm 0 W/m2
22:03 13.4 °C 10.2 °C 1014.2 hPa West 4.7 km/h 16.1 km/h 81% 0.0 mm 0 W/m2
22:08 13.4 °C 10.4 °C 1014.2 hPa NE 3.2 km/h 11.3 km/h 82% 0.0 mm 0 W/m2
22:13 13.4 °C 10.4 °C 1014.2 hPa NW 7.9 km/h 12.9 km/h 82% 0.0 mm 0 W/m2
22:18 13.5 °C 10.5 °C 1014.2 hPa SSW 3.2 km/h 6.4 km/h 82% 0.0 mm 0 W/m2
22:23 13.5 °C 10.5 °C 1013.9 hPa WSW 3.2 km/h 6.4 km/h 82% 0.0 mm 0 W/m2
22:28 13.5 °C 10.5 °C 1013.9 hPa NNE 3.2 km/h 11.3 km/h 82% 0.0 mm 0 W/m2
22:34 13.6 °C 10.6 °C 1014.2 hPa NW 3.2 km/h 8 km/h 82% 0.0 mm 0 W/m2
22:39 13.6 °C 10.6 °C 1013.9 hPa North 4.7 km/h 6.4 km/h 82% 0.0 mm 0 W/m2
22:44 13.6 °C 10.6 °C 1013.9 hPa West 9.7 km/h 9.7 km/h 82% 0.0 mm 0 W/m2
22:49 13.5 °C 10.5 °C 1013.9 hPa NNW 7.9 km/h 8 km/h 82% 0.0 mm 0 W/m2
22:54 13.5 °C 10.5 °C 1013.9 hPa WSW 6.4 km/h 19.3 km/h 82% 0.0 mm 0 W/m2
22:59 13.5 °C 10.5 °C 1013.9 hPa WNW 6.4 km/h 11.3 km/h 82% 0.0 mm 0 W/m2
23:04 13.4 °C 10.4 °C 1013.9 hPa NE 1.4 km/h 19.3 km/h 82% 0.0 mm 0 W/m2
23:09 13.4 °C 10.4 °C 1013.9 hPa NW 1.4 km/h 4.8 km/h 82% 0.0 mm 0 W/m2
23:14 13.4 °C 10.4 °C 1013.9 hPa NW 3.2 km/h 4.8 km/h 82% 0.0 mm 0 W/m2
23:19 13.4 °C 10.6 °C 1013.9 hPa SW 1.4 km/h 8 km/h 83% 0.0 mm 0 W/m2
23:24 13.3 °C 10.5 °C 1013.5 hPa East 4.7 km/h 11.3 km/h 83% 0.0 mm 0 W/m2
23:29 13.3 °C 10.5 °C 1013.5 hPa ENE 4.7 km/h 6.4 km/h 83% 0.0 mm 0 W/m2
23:35 13.3 °C 10.5 °C 1013.5 hPa NNW 6.4 km/h 14.5 km/h 83% 0.0 mm 0 W/m2
23:40 13.3 °C 10.5 °C 1013.5 hPa North 6.4 km/h 8 km/h 83% 0.0 mm 0 W/m2
23:45 13.3 °C 10.5 °C 1013.5 hPa WNW 1.4 km/h 6.4 km/h 83% 0.0 mm 0 W/m2
23:50 13.3 °C 10.5 °C 1013.5 hPa WNW 3.2 km/h 6.4 km/h 83% 0.0 mm 0 W/m2
23:55 13.3 °C 10.5 °C 1013.5 hPa NW 7.9 km/h 8 km/h 83% 0.0 mm 0 W/m2
Juneau County Weather
Compliments of Weather Underground - 4 mb